createdAt,value
2018-09-27T00:00:55.045Z,100.00
2018-09-27T00:03:59.363Z,100.00
2018-09-27T00:07:03.652Z,100.00
2018-09-27T00:10:07.925Z,100.00
2018-09-27T00:13:12.230Z,100.00
2018-09-27T00:16:16.522Z,100.00
2018-09-27T00:19:20.797Z,100.00
2018-09-27T00:22:25.101Z,100.00
2018-09-27T00:25:29.414Z,100.00
2018-09-27T00:28:33.677Z,100.00
2018-09-27T00:31:38.628Z,100.00
2018-09-27T00:34:42.886Z,100.00
2018-09-27T00:37:47.174Z,100.00
2018-09-27T00:40:51.407Z,100.00
2018-09-27T00:43:56.229Z,100.00
2018-09-27T00:47:00.494Z,100.00
2018-09-27T00:50:04.918Z,100.00
2018-09-27T00:53:09.357Z,100.00
2018-09-27T00:56:13.630Z,100.00
2018-09-27T00:59:17.866Z,100.00
2018-09-27T01:02:22.135Z,100.00
2018-09-27T01:05:26.400Z,100.00
2018-09-27T01:08:30.631Z,100.00
2018-09-27T01:11:34.880Z,100.00
2018-09-27T01:14:39.126Z,100.00
2018-09-27T01:17:43.419Z,100.00
2018-09-27T01:20:47.737Z,100.00
2018-09-27T01:23:52.009Z,100.00
2018-09-27T01:26:56.334Z,100.00
2018-09-27T01:30:00.592Z,100.00
2018-09-27T01:33:04.858Z,100.00
2018-09-27T01:36:09.108Z,100.00
2018-09-27T01:39:13.390Z,100.00
2018-09-27T01:42:17.666Z,100.00
2018-09-27T01:45:21.929Z,100.00
2018-09-27T01:48:26.218Z,100.00
2018-09-27T01:51:30.488Z,100.00
2018-09-27T01:54:34.803Z,100.00
2018-09-27T01:57:39.079Z,100.00
2018-09-27T02:00:43.361Z,100.00
2018-09-27T02:03:47.622Z,100.00
2018-09-27T02:06:51.897Z,100.00
2018-09-27T02:09:56.162Z,100.00
2018-09-27T02:13:00.438Z,100.00
2018-09-27T02:16:04.688Z,100.00
2018-09-27T02:19:08.953Z,100.00
2018-09-27T02:22:13.246Z,100.00
2018-09-27T02:25:17.525Z,100.00
2018-09-27T02:28:21.801Z,100.00
2018-09-27T02:31:26.060Z,100.00
2018-09-27T02:34:31.026Z,100.00
2018-09-27T02:37:35.283Z,100.00
2018-09-27T02:40:39.569Z,100.00
2018-09-27T02:43:44.494Z,100.00
2018-09-27T02:46:48.773Z,100.00
2018-09-27T02:49:53.025Z,100.00
2018-09-27T02:52:57.337Z,100.00
2018-09-27T02:56:01.583Z,100.00
2018-09-27T02:59:07.063Z,100.00
2018-09-27T03:02:11.317Z,100.00
2018-09-27T03:05:15.600Z,100.00
2018-09-27T03:08:19.861Z,100.00
2018-09-27T03:11:24.155Z,100.00
2018-09-27T03:14:28.423Z,100.00
2018-09-27T03:17:32.691Z,100.00
2018-09-27T03:20:36.994Z,100.00
2018-09-27T03:23:41.255Z,100.00
2018-09-27T03:26:45.525Z,100.00
2018-09-27T03:29:49.769Z,100.00
2018-09-27T03:32:54.072Z,100.00
2018-09-27T03:35:58.677Z,100.00
2018-09-27T03:39:05.998Z,100.00
2018-09-27T03:42:10.321Z,100.00
2018-09-27T03:45:14.578Z,100.00
2018-09-27T03:48:18.837Z,100.00
2018-09-27T03:51:23.114Z,100.00
2018-09-27T03:54:27.413Z,100.00
2018-09-27T03:57:31.745Z,100.00
2018-09-27T04:00:36.018Z,100.00
2018-09-27T04:03:40.269Z,100.00
2018-09-27T04:06:45.576Z,100.00
2018-09-27T04:09:49.853Z,100.00
2018-09-27T04:12:54.143Z,100.00
2018-09-27T04:15:58.375Z,100.00
2018-09-27T04:19:02.831Z,100.00
2018-09-27T04:22:07.165Z,100.00
2018-09-27T04:25:11.435Z,100.00
2018-09-27T04:28:15.691Z,100.00
2018-09-27T04:31:19.971Z,100.00
2018-09-27T04:34:24.225Z,100.00
2018-09-27T04:37:28.873Z,100.00
2018-09-27T04:40:33.139Z,100.00
2018-09-27T04:43:37.425Z,100.00
2018-09-27T04:46:41.764Z,100.00
2018-09-27T04:49:46.010Z,100.00
2018-09-27T04:52:50.374Z,100.00
2018-09-27T04:55:54.732Z,100.00
2018-09-27T04:58:58.995Z,100.00
2018-09-27T05:02:03.251Z,100.00
2018-09-27T05:05:07.607Z,100.00
2018-09-27T05:08:11.876Z,100.00
2018-09-27T05:11:16.127Z,100.00
2018-09-27T05:14:20.397Z,100.00
2018-09-27T05:17:24.694Z,100.00
2018-09-27T05:20:28.972Z,100.00
2018-09-27T05:23:33.362Z,100.00
2018-09-27T05:26:37.648Z,100.00
2018-09-27T05:29:41.884Z,100.00
2018-09-27T05:32:46.134Z,100.00
2018-09-27T05:35:51.437Z,100.00
2018-09-27T05:38:55.737Z,100.00
2018-09-27T05:42:00.000Z,100.00
2018-09-27T05:45:04.274Z,100.00
2018-09-27T05:48:08.551Z,100.00
2018-09-27T05:51:12.807Z,100.00
2018-09-27T05:54:17.064Z,100.00
2018-09-27T05:57:21.349Z,100.00
2018-09-27T06:00:25.659Z,100.00
2018-09-27T06:03:29.955Z,100.00
2018-09-27T06:06:34.215Z,100.00
2018-09-27T06:09:38.532Z,100.00
2018-09-27T06:12:42.756Z,100.00
2018-09-27T06:15:47.005Z,100.00
2018-09-27T06:18:51.272Z,100.00
2018-09-27T06:21:55.523Z,100.00
2018-09-27T06:24:59.844Z,100.00
2018-09-27T06:28:04.082Z,100.00
2018-09-27T06:31:08.546Z,100.00
2018-09-27T06:34:12.836Z,100.00
2018-09-27T06:37:17.075Z,100.00
2018-09-27T06:40:21.346Z,100.00
2018-09-27T06:43:26.433Z,100.00
2018-09-27T06:46:30.719Z,100.00
2018-09-27T06:49:34.960Z,100.00
2018-09-27T06:52:39.259Z,100.00
2018-09-27T06:55:43.582Z,100.00
2018-09-27T06:58:47.796Z,100.00
2018-09-27T07:01:52.021Z,100.00
2018-09-27T07:04:56.295Z,100.00
2018-09-27T07:08:00.583Z,100.00
2018-09-27T07:11:04.822Z,100.00
2018-09-27T07:14:09.702Z,100.00
2018-09-27T07:17:13.974Z,100.00
2018-09-27T07:20:18.340Z,100.00
2018-09-27T07:23:22.573Z,100.00
2018-09-27T07:26:26.912Z,100.00
2018-09-27T07:29:31.097Z,100.00
2018-09-27T07:32:35.438Z,100.00
2018-09-27T07:35:39.624Z,100.00
2018-09-27T07:38:43.960Z,100.00
2018-09-27T07:41:48.149Z,100.00
2018-09-27T07:44:52.419Z,100.00
2018-09-27T07:47:56.663Z,100.00
2018-09-27T07:51:01.065Z,100.00
2018-09-27T07:54:05.345Z,100.00
2018-09-27T07:57:09.826Z,100.00
2018-09-27T08:00:14.082Z,100.00
2018-09-27T08:03:18.367Z,100.00
2018-09-27T08:06:22.664Z,100.00
2018-09-27T08:09:26.965Z,100.00
2018-09-27T08:12:31.255Z,100.00
2018-09-27T08:15:35.478Z,100.00
2018-09-27T08:18:39.771Z,100.00
2018-09-27T08:21:44.036Z,100.00
2018-09-27T08:24:48.416Z,100.00
2018-09-27T08:27:52.685Z,100.00
2018-09-27T08:30:57.238Z,100.00
2018-09-27T08:34:01.347Z,100.00
2018-09-27T08:37:05.802Z,100.00
2018-09-27T08:40:11.217Z,100.00
2018-09-27T08:43:15.483Z,100.00
2018-09-27T08:46:19.758Z,100.00
2018-09-27T08:49:24.029Z,100.00
2018-09-27T08:52:28.294Z,100.00
2018-09-27T08:55:32.595Z,100.00
2018-09-27T08:58:36.857Z,100.00
2018-09-27T09:01:41.124Z,100.00
2018-09-27T09:04:45.377Z,100.00
2018-09-27T09:07:49.587Z,100.00
2018-09-27T09:10:53.847Z,100.00
2018-09-27T09:13:58.099Z,100.00
2018-09-27T09:17:02.366Z,100.00
2018-09-27T09:20:07.196Z,100.00
2018-09-27T09:23:11.469Z,100.00
2018-09-27T09:26:15.762Z,100.00
2018-09-27T09:29:20.121Z,100.00
2018-09-27T09:32:24.395Z,100.00
2018-09-27T09:35:28.689Z,100.00
2018-09-27T09:38:32.959Z,100.00
2018-09-27T09:41:38.025Z,100.00
2018-09-27T09:44:42.281Z,100.00
2018-09-27T09:47:46.529Z,100.00
2018-09-27T09:50:51.622Z,100.00
2018-09-27T09:53:55.916Z,100.00
2018-09-27T09:57:00.179Z,100.00
2018-09-27T10:00:04.533Z,100.00
2018-09-27T10:03:09.384Z,100.00
2018-09-27T10:06:13.621Z,100.00
2018-09-27T10:09:17.885Z,100.00
2018-09-27T10:12:22.166Z,100.00
2018-09-27T10:15:26.446Z,100.00
2018-09-27T10:18:30.696Z,100.00
2018-09-27T10:21:35.011Z,100.00
2018-09-27T10:24:39.257Z,100.00
2018-09-27T10:27:43.570Z,100.00
2018-09-27T10:30:47.829Z,100.00
2018-09-27T10:33:52.797Z,100.00
2018-09-27T10:36:57.049Z,100.00
2018-09-27T10:40:01.324Z,100.00
2018-09-27T10:43:05.577Z,100.00
2018-09-27T10:46:09.847Z,100.00
2018-09-27T10:49:14.109Z,100.00
2018-09-27T10:52:18.446Z,100.00
2018-09-27T10:55:22.702Z,100.00
2018-09-27T10:58:26.984Z,100.00
2018-09-27T11:01:31.223Z,100.00
2018-09-27T11:04:35.494Z,100.00
2018-09-27T11:07:39.759Z,100.00
2018-09-27T11:10:44.024Z,100.00
2018-09-27T11:13:48.292Z,100.00
2018-09-27T11:16:52.563Z,100.00
2018-09-27T11:19:56.844Z,100.00
2018-09-27T11:23:01.119Z,100.00
2018-09-27T11:26:05.410Z,100.00
2018-09-27T11:29:15.823Z,100.00
2018-09-27T11:32:26.269Z,100.00
2018-09-27T11:35:30.524Z,100.00
2018-09-27T11:38:34.812Z,100.00
2018-09-27T11:41:39.078Z,100.00
2018-09-27T11:44:44.421Z,100.00
2018-09-27T11:47:48.675Z,100.00
2018-09-27T11:50:52.915Z,100.00
2018-09-27T11:53:57.193Z,100.00
2018-09-27T11:57:01.462Z,100.00
2018-09-27T12:00:06.259Z,100.00
2018-09-27T12:03:10.513Z,100.00
2018-09-27T12:06:14.781Z,100.00
2018-09-27T12:09:19.037Z,100.00
2018-09-27T12:12:24.548Z,100.00
2018-09-27T12:15:28.793Z,100.00
2018-09-27T12:18:33.082Z,100.00
2018-09-27T12:21:37.334Z,100.00
2018-09-27T12:24:41.646Z,100.00
2018-09-27T12:27:47.725Z,100.00
2018-09-27T12:30:52.012Z,100.00
2018-09-27T12:33:56.286Z,100.00
2018-09-27T12:37:00.554Z,100.00
2018-09-27T12:40:04.819Z,100.00
2018-09-27T12:43:09.199Z,100.00
2018-09-27T12:46:13.463Z,100.00
2018-09-27T12:49:17.744Z,100.00
2018-09-27T12:52:22.229Z,100.00
2018-09-27T12:55:26.264Z,100.00
2018-09-27T12:58:30.548Z,100.00
2018-09-27T13:01:34.902Z,100.00
2018-09-27T13:04:39.152Z,100.00
2018-09-27T13:07:43.406Z,100.00
2018-09-27T13:10:47.684Z,100.00
2018-09-27T13:13:51.932Z,100.00
2018-09-27T13:16:56.206Z,100.00
2018-09-27T13:20:00.510Z,100.00
2018-09-27T13:23:04.777Z,100.00
2018-09-27T13:26:09.125Z,100.00
2018-09-27T13:29:13.373Z,100.00
2018-09-27T13:32:17.649Z,100.00
2018-09-27T13:35:21.896Z,100.00
2018-09-27T13:38:26.187Z,100.00
2018-09-27T13:41:30.428Z,100.00
2018-09-27T13:44:34.705Z,100.00
2018-09-27T13:47:38.987Z,100.00
2018-09-27T13:50:43.265Z,100.00
2018-09-27T13:53:47.575Z,100.00
2018-09-27T13:56:51.893Z,100.00
2018-09-27T13:59:56.184Z,100.00
2018-09-27T14:03:00.475Z,100.00
2018-09-27T14:06:04.758Z,100.00
2018-09-27T14:09:09.721Z,100.00
2018-09-27T14:12:14.002Z,100.00
2018-09-27T14:15:18.268Z,100.00
2018-09-27T14:18:22.516Z,100.00
2018-09-27T14:21:26.775Z,100.00
2018-09-27T14:24:31.058Z,100.00
2018-09-27T14:27:35.304Z,100.00
2018-09-27T14:30:39.582Z,100.00
2018-09-27T14:33:43.878Z,100.00
2018-09-27T14:36:48.622Z,100.00
2018-09-27T14:39:53.864Z,100.00
2018-09-27T14:42:58.141Z,100.00
2018-09-27T14:46:02.371Z,100.00
2018-09-27T14:49:06.700Z,100.00
2018-09-27T14:52:10.960Z,100.00
2018-09-27T14:55:15.214Z,100.00
2018-09-27T14:58:19.463Z,100.00
2018-09-27T15:01:23.859Z,100.00
2018-09-27T15:04:28.107Z,100.00
2018-09-27T15:07:32.366Z,100.00
2018-09-27T15:10:36.623Z,100.00
2018-09-27T15:13:41.010Z,100.00
2018-09-27T15:16:45.279Z,100.00
2018-09-27T15:19:49.520Z,100.00
2018-09-27T15:22:54.125Z,100.00
2018-09-27T15:25:58.380Z,100.00
2018-09-27T15:29:02.650Z,100.00
2018-09-27T15:32:06.913Z,100.00
2018-09-27T15:35:11.216Z,100.00
2018-09-27T15:38:15.649Z,100.00
2018-09-27T15:41:19.971Z,100.00
2018-09-27T15:44:24.241Z,100.00
2018-09-27T15:47:29.872Z,100.00
2018-09-27T15:50:34.217Z,100.00
2018-09-27T15:53:38.479Z,100.00
2018-09-27T15:56:42.794Z,100.00
2018-09-27T15:59:47.082Z,100.00
2018-09-27T16:02:51.402Z,100.00
2018-09-27T16:05:55.701Z,100.00
2018-09-27T16:09:00.139Z,100.00
2018-09-27T16:12:04.352Z,100.00
2018-09-27T16:15:08.654Z,100.00
2018-09-27T16:18:12.964Z,100.00
2018-09-27T16:21:17.208Z,100.00
2018-09-27T16:24:21.519Z,100.00
2018-09-27T16:27:25.831Z,100.00
2018-09-27T16:30:30.109Z,100.00
2018-09-27T16:33:34.514Z,100.00
2018-09-27T16:36:38.885Z,100.00
2018-09-27T16:39:43.165Z,100.00
2018-09-27T16:42:47.459Z,100.00
2018-09-27T16:45:51.747Z,100.00
2018-09-27T16:48:56.060Z,100.00
2018-09-27T16:52:00.330Z,100.00
2018-09-27T16:55:05.153Z,100.00
2018-09-27T16:58:09.461Z,100.00
2018-09-27T17:01:13.800Z,100.00
2018-09-27T17:04:18.119Z,100.00
2018-09-27T17:07:22.349Z,100.00
2018-09-27T17:10:26.576Z,100.00
2018-09-27T17:13:30.859Z,100.00
2018-09-27T17:16:35.183Z,100.00
2018-09-27T17:19:39.428Z,100.00
2018-09-27T17:22:43.940Z,100.00
2018-09-27T17:25:48.184Z,100.00
2018-09-27T17:28:52.429Z,100.00
2018-09-27T17:31:56.678Z,100.00
2018-09-27T17:35:00.961Z,100.00
2018-09-27T17:38:05.224Z,100.00
2018-09-27T17:41:09.697Z,100.00
2018-09-27T17:44:13.973Z,100.00
2018-09-27T17:47:18.277Z,100.00
2018-09-27T17:50:22.562Z,100.00
2018-09-27T17:53:26.996Z,100.00
2018-09-27T17:56:31.213Z,100.00
2018-09-27T17:59:35.534Z,100.00
2018-09-27T18:02:39.856Z,100.00
2018-09-27T18:05:44.272Z,100.00
2018-09-27T18:08:48.512Z,100.00
2018-09-27T18:11:52.799Z,100.00
2018-09-27T18:14:57.146Z,100.00
2018-09-27T18:18:01.444Z,100.00
2018-09-27T18:21:05.706Z,100.00
2018-09-27T18:24:10.053Z,100.00
2018-09-27T18:27:14.391Z,100.00
2018-09-27T18:30:19.837Z,100.00
2018-09-27T18:33:24.425Z,100.00
2018-09-27T18:36:29.867Z,100.00
2018-09-27T18:39:34.392Z,100.00
2018-09-27T18:42:38.794Z,100.00
2018-09-27T18:45:43.263Z,100.00
2018-09-27T18:48:47.581Z,100.00
2018-09-27T18:51:51.873Z,100.00
2018-09-27T18:54:56.276Z,100.00
2018-09-27T18:58:00.805Z,100.00
2018-09-27T19:01:05.223Z,100.00
2018-09-27T19:04:09.786Z,100.00
2018-09-27T19:07:14.284Z,100.00
2018-09-27T19:10:18.575Z,100.00
2018-09-27T19:13:22.950Z,100.00
2018-09-27T19:16:27.191Z,100.00
2018-09-27T19:19:31.886Z,100.00
2018-09-27T19:22:36.420Z,100.00
2018-09-27T19:25:40.967Z,100.00
2018-09-27T19:28:45.455Z,100.00
2018-09-27T19:31:49.970Z,100.00
2018-09-27T19:34:54.348Z,100.00
2018-09-27T19:37:58.816Z,100.00
2018-09-27T19:41:03.113Z,100.00
2018-09-27T19:44:07.592Z,100.00
2018-09-27T19:47:12.123Z,100.00
2018-09-27T19:50:16.398Z,100.00
2018-09-27T19:53:20.723Z,100.00
2018-09-27T19:56:25.111Z,100.00
2018-09-27T19:59:29.610Z,100.00
2018-09-27T20:02:33.986Z,100.00
2018-09-27T20:05:38.480Z,100.00
2018-09-27T20:08:43.018Z,100.00
2018-09-27T20:11:47.536Z,100.00
2018-09-27T20:14:51.967Z,100.00
2018-09-27T20:17:57.301Z,100.00
2018-09-27T20:21:02.454Z,100.00
2018-09-27T20:24:06.765Z,100.00
2018-09-27T20:27:11.565Z,100.00
2018-09-27T20:30:15.836Z,100.00
2018-09-27T20:33:20.511Z,100.00
2018-09-27T20:36:25.312Z,100.00
2018-09-27T20:39:29.686Z,100.00
2018-09-27T20:42:33.933Z,100.00
2018-09-27T20:45:38.343Z,100.00
2018-09-27T20:48:42.592Z,100.00
2018-09-27T20:51:47.008Z,100.00
2018-09-27T20:54:51.281Z,100.00
2018-09-27T20:57:56.431Z,100.00
2018-09-27T21:01:00.737Z,100.00
2018-09-27T21:04:05.167Z,100.00
2018-09-27T21:07:09.408Z,100.00
2018-09-27T21:10:14.814Z,100.00
2018-09-27T21:13:20.177Z,100.00
2018-09-27T21:16:24.505Z,100.00
2018-09-27T21:19:30.068Z,100.00
2018-09-27T21:22:34.334Z,100.00
2018-09-27T21:25:38.692Z,100.00
2018-09-27T21:28:42.942Z,100.00
2018-09-27T21:31:47.248Z,100.00
2018-09-27T21:34:52.310Z,100.00
2018-09-27T21:37:56.833Z,100.00
2018-09-27T21:41:01.566Z,100.00
2018-09-27T21:44:09.700Z,100.00
2018-09-27T21:47:15.689Z,100.00
2018-09-27T21:50:20.648Z,100.00
2018-09-27T21:53:25.224Z,100.00
2018-09-27T21:56:29.485Z,100.00
2018-09-27T21:59:33.921Z,100.00
2018-09-27T22:02:38.169Z,100.00
2018-09-27T22:05:42.421Z,100.00
2018-09-27T22:08:46.683Z,100.00
2018-09-27T22:11:51.016Z,100.00
2018-09-27T22:14:55.563Z,100.00
2018-09-27T22:17:59.864Z,100.00
2018-09-27T22:21:04.099Z,100.00
2018-09-27T22:24:08.474Z,100.00
2018-09-27T22:27:12.830Z,100.00
2018-09-27T22:30:17.116Z,100.00
2018-09-27T22:33:21.389Z,100.00
2018-09-27T22:36:25.792Z,100.00
2018-09-27T22:39:30.080Z,100.00
2018-09-27T22:42:34.354Z,100.00
2018-09-27T22:45:38.669Z,100.00
2018-09-27T22:48:42.925Z,100.00
2018-09-27T22:51:47.251Z,99.78
2018-09-27T22:54:51.529Z,99.32
2018-09-27T22:57:55.885Z,98.92
2018-09-27T23:01:00.133Z,99.32
2018-09-27T23:04:04.404Z,99.48
2018-09-27T23:07:08.708Z,98.43
2018-09-27T23:10:12.975Z,98.71
2018-09-27T23:13:17.752Z,98.07
2018-09-27T23:16:22.010Z,96.93
2018-09-27T23:19:27.391Z,96.78
2018-09-27T23:22:31.665Z,96.62
2018-09-27T23:25:35.955Z,94.71
2018-09-27T23:28:40.211Z,93.55
2018-09-27T23:31:44.493Z,92.46
2018-09-27T23:34:48.763Z,93.26
2018-09-27T23:37:53.031Z,93.31
2018-09-27T23:40:57.276Z,91.88
2018-09-27T23:44:01.531Z,91.88
2018-09-27T23:47:05.821Z,93.21
2018-09-27T23:50:10.096Z,93.55
2018-09-27T23:53:14.348Z,92.63
2018-09-27T23:56:18.645Z,92.80
2018-09-27T23:59:22.913Z,92.88
